sensor_id;sensor_type;location;lat;lon;timestamp;pressure;altitude;pressure_sealevel;temperature;humidity
15444;BME280;7822;48.146;11.576;2023-04-27T00:00:04;95148.69;;;15.12;70.53
15444;BME280;7822;48.146;11.576;2023-04-27T00:02:37;95146.09;;;15.12;70.72
15444;BME280;7822;48.146;11.576;2023-04-27T00:05:05;95145.25;;;15.11;70.47
15444;BME280;7822;48.146;11.576;2023-04-27T00:07:33;95145.13;;;15.13;70.46
15444;BME280;7822;48.146;11.576;2023-04-27T00:10:01;95142.50;;;15.13;70.42
15444;BME280;7822;48.146;11.576;2023-04-27T00:12:29;95137.41;;;15.11;70.59
15444;BME280;7822;48.146;11.576;2023-04-27T00:14:57;95139.06;;;15.12;70.55
15444;BME280;7822;48.146;11.576;2023-04-27T00:17:24;95142.50;;;15.13;70.55
15444;BME280;7822;48.146;11.576;2023-04-27T00:19:53;95139.91;;;15.13;70.30
15444;BME280;7822;48.146;11.576;2023-04-27T00:22:21;95137.41;;;15.11;70.54
15444;BME280;7822;48.146;11.576;2023-04-27T00:24:49;95143.47;;;15.12;70.29
15444;BME280;7822;48.146;11.576;2023-04-27T00:27:16;95136.47;;;15.12;70.47
15444;BME280;7822;48.146;11.576;2023-04-27T00:29:44;95135.63;;;15.12;70.50
15444;BME280;7822;48.146;11.576;2023-04-27T00:32:12;95125.34;;;15.10;70.63
15444;BME280;7822;48.146;11.576;2023-04-27T00:34:39;95125.19;;;15.12;70.56
15444;BME280;7822;48.146;11.576;2023-04-27T00:37:08;95127.97;;;15.10;70.25
15444;BME280;7822;48.146;11.576;2023-04-27T00:39:36;95130.56;;;15.10;70.27
15444;BME280;7822;48.146;11.576;2023-04-27T00:42:04;95133.19;;;15.10;70.46
15444;BME280;7822;48.146;11.576;2023-04-27T00:44:32;95124.34;;;15.11;70.59
15444;BME280;7822;48.146;11.576;2023-04-27T00:47:00;95127.97;;;15.10;70.25
15444;BME280;7822;48.146;11.576;2023-04-27T00:49:27;95124.50;;;15.10;70.35
15444;BME280;7822;48.146;11.576;2023-04-27T00:51:56;95125.34;;;15.10;70.46
15444;BME280;7822;48.146;11.576;2023-04-27T00:54:25;95130.56;;;15.10;70.29
15444;BME280;7822;48.146;11.576;2023-04-27T00:56:52;95124.50;;;15.10;70.46
15444;BME280;7822;48.146;11.576;2023-04-27T00:59:20;95130.72;;;15.09;70.63
15444;BME280;7822;48.146;11.576;2023-04-27T01:01:48;95132.34;;;15.10;70.69
15444;BME280;7822;48.146;11.576;2023-04-27T01:04:16;95126.31;;;15.09;70.52
15444;BME280;7822;48.146;11.576;2023-04-27T01:06:44;95128.13;;;15.09;70.33
15444;BME280;7822;48.146;11.576;2023-04-27T01:09:12;95129.91;;;15.08;70.29
15444;BME280;7822;48.146;11.576;2023-04-27T01:11:41;95133.34;;;15.09;70.48
15444;BME280;7822;48.146;11.576;2023-04-27T01:14:09;95134.97;;;15.10;70.60
15444;BME280;7822;48.146;11.576;2023-04-27T01:16:36;95139.38;;;15.09;70.42
15444;BME280;7822;48.146;11.576;2023-04-27T01:19:06;95131.53;;;15.09;70.66
15444;BME280;7822;48.146;11.576;2023-04-27T01:21:33;95131.53;;;15.09;70.55
15444;BME280;7822;48.146;11.576;2023-04-27T01:24:04;95132.34;;;15.10;70.42
15444;BME280;7822;48.146;11.576;2023-04-27T01:26:32;95128.91;;;15.09;70.47
15444;BME280;7822;48.146;11.576;2023-04-27T01:29:00;95131.53;;;15.09;70.66
15444;BME280;7822;48.146;11.576;2023-04-27T01:31:28;95133.19;;;15.10;70.50
15444;BME280;7822;48.146;11.576;2023-04-27T01:33:55;95124.50;;;15.10;70.65
15444;BME280;7822;48.146;11.576;2023-04-27T01:36:23;95126.31;;;15.09;70.66
15444;BME280;7822;48.146;11.576;2023-04-27T01:38:53;95133.19;;;15.10;70.38
15444;BME280;7822;48.146;11.576;2023-04-27T01:41:23;95138.41;;;15.10;70.40
15444;BME280;7822;48.146;11.576;2023-04-27T01:43:51;95133.19;;;15.10;70.21
15444;BME280;7822;48.146;11.576;2023-04-27T01:46:18;95132.34;;;15.10;70.21
15444;BME280;7822;48.146;11.576;2023-04-27T01:48:46;95134.13;;;15.09;70.30
15444;BME280;7822;48.146;11.576;2023-04-27T01:51:13;95133.19;;;15.10;70.44
15444;BME280;7822;48.146;11.576;2023-04-27T01:53:41;95134.13;;;15.09;70.72
15444;BME280;7822;48.146;11.576;2023-04-27T01:56:09;95141.97;;;15.09;70.39
15444;BME280;7822;48.146;11.576;2023-04-27T01:58:38;95140.19;;;15.10;70.38
15444;BME280;7822;48.146;11.576;2023-04-27T02:01:06;95147.19;;;15.09;70.55
15444;BME280;7822;48.146;11.576;2023-04-27T02:03:33;95141.97;;;15.09;70.71
15444;BME280;7822;48.146;11.576;2023-04-27T02:06:01;95141.19;;;15.09;70.28
15444;BME280;7822;48.146;11.576;2023-04-27T02:08:29;95136.75;;;15.09;70.52
15444;BME280;7822;48.146;11.576;2023-04-27T02:10:56;95156.69;;;15.10;70.47
15444;BME280;7822;48.146;11.576;2023-04-27T02:13:24;95135.13;;;15.08;70.46
15444;BME280;7822;48.146;11.576;2023-04-27T02:15:53;95142.97;;;15.08;70.44
15444;BME280;7822;48.146;11.576;2023-04-27T02:18:21;95141.19;;;15.09;70.46
15444;BME280;7822;48.146;11.576;2023-04-27T02:20:49;95137.91;;;15.07;70.26
15444;BME280;7822;48.146;11.576;2023-04-27T02:23:17;95143.78;;;15.09;70.48
15444;BME280;7822;48.146;11.576;2023-04-27T02:25:44;95145.75;;;15.07;70.30
15444;BME280;7822;48.146;11.576;2023-04-27T02:28:12;95149.16;;;15.07;70.45
15444;BME280;7822;48.146;11.576;2023-04-27T02:30:40;95150.97;;;15.07;70.17
15444;BME280;7822;48.146;11.576;2023-04-27T02:33:09;95155.38;;;15.06;70.36
15444;BME280;7822;48.146;11.576;2023-04-27T02:35:37;95157.81;;;15.08;70.60
15444;BME280;7822;48.146;11.576;2023-04-27T02:38:04;95156.19;;;15.07;70.43
15444;BME280;7822;48.146;11.576;2023-04-27T02:40:32;95152.59;;;15.08;70.39
15444;BME280;7822;48.146;11.576;2023-04-27T02:43:00;95157.00;;;15.07;70.42
15444;BME280;7822;48.146;11.576;2023-04-27T02:45:27;95160.59;;;15.06;70.50
15444;BME280;7822;48.146;11.576;2023-04-27T02:47:55;95164.81;;;15.07;70.36
15444;BME280;7822;48.146;11.576;2023-04-27T02:50:24;95164.03;;;15.07;70.26
15444;BME280;7822;48.146;11.576;2023-04-27T02:52:52;95162.22;;;15.07;70.47
15444;BME280;7822;48.146;11.576;2023-04-27T02:55:20;95171.88;;;15.07;70.49
15444;BME280;7822;48.146;11.576;2023-04-27T02:57:48;95168.28;;;15.08;70.52
15444;BME280;7822;48.146;11.576;2023-04-27T03:00:16;95172.66;;;15.07;70.45
15444;BME280;7822;48.146;11.576;2023-04-27T03:02:44;95163.88;;;15.08;70.47
15444;BME280;7822;48.146;11.576;2023-04-27T03:05:12;95166.47;;;15.08;70.67
15444;BME280;7822;48.146;11.576;2023-04-27T03:07:41;95163.88;;;15.08;70.33
15444;BME280;7822;48.146;11.576;2023-04-27T03:10:09;95164.81;;;15.07;70.46
15444;BME280;7822;48.146;11.576;2023-04-27T03:12:36;95155.22;;;15.08;70.63
15444;BME280;7822;48.146;11.576;2023-04-27T03:15:05;95162.09;;;15.09;70.53
15444;BME280;7822;48.146;11.576;2023-04-27T03:17:33;95164.69;;;15.09;70.32
15444;BME280;7822;48.146;11.576;2023-04-27T03:20:00;95163.72;;;15.10;70.30
15444;BME280;7822;48.146;11.576;2023-04-27T03:22:30;95158.66;;;15.08;70.60
15444;BME280;7822;48.146;11.576;2023-04-27T03:24:59;95170.72;;;15.09;70.48
15444;BME280;7822;48.146;11.576;2023-04-27T03:27:26;95163.88;;;15.08;70.36
15444;BME280;7822;48.146;11.576;2023-04-27T03:29:54;95163.03;;;15.08;70.41
15444;BME280;7822;48.146;11.576;2023-04-27T03:32:22;95162.88;;;15.09;70.46
15444;BME280;7822;48.146;11.576;2023-04-27T03:34:49;95162.22;;;15.07;70.38
15444;BME280;7822;48.146;11.576;2023-04-27T03:37:17;95175.16;;;15.09;70.16
15444;BME280;7822;48.146;11.576;2023-04-27T03:39:45;95176.94;;;15.08;70.15
15444;BME280;7822;48.146;11.576;2023-04-27T03:42:14;95171.72;;;15.08;70.63
15444;BME280;7822;48.146;11.576;2023-04-27T03:44:41;95177.88;;;15.07;70.26
15444;BME280;7822;48.146;11.576;2023-04-27T03:47:09;95178.88;;;15.06;70.25
15444;BME280;7822;48.146;11.576;2023-04-27T03:49:37;95183.13;;;15.07;70.40
15444;BME280;7822;48.146;11.576;2023-04-27T03:52:04;95179.72;;;15.07;70.44
15444;BME280;7822;48.146;11.576;2023-04-27T03:54:32;95180.66;;;15.06;70.35
15444;BME280;7822;48.146;11.576;2023-04-27T03:56:59;95178.72;;;15.08;70.34
15444;BME280;7822;48.146;11.576;2023-04-27T03:59:29;95184.09;;;15.06;70.14
15444;BME280;7822;48.146;11.576;2023-04-27T04:01:56;95185.72;;;15.07;70.14
15444;BME280;7822;48.146;11.576;2023-04-27T04:04:27;95191.94;;;15.06;70.16
15444;BME280;7822;48.146;11.576;2023-04-27T04:06:54;95189.31;;;15.06;70.40
15444;BME280;7822;48.146;11.576;2023-04-27T04:09:22;95194.56;;;15.06;70.52
15444;BME280;7822;48.146;11.576;2023-04-27T04:11:50;95205.84;;;15.07;70.21
15444;BME280;7822;48.146;11.576;2023-04-27T04:14:18;95209.25;;;15.07;70.43
15444;BME280;7822;48.146;11.576;2023-04-27T04:16:47;95208.28;;;15.08;70.54
15444;BME280;7822;48.146;11.576;2023-04-27T04:19:14;95211.84;;;15.07;70.21
15444;BME280;7822;48.146;11.576;2023-04-27T04:21:42;95222.19;;;15.09;70.35
15444;BME280;7822;48.146;11.576;2023-04-27T04:24:10;95216.94;;;15.09;70.35
15444;BME280;7822;48.146;11.576;2023-04-27T04:26:37;95222.97;;;15.09;70.30
15444;BME280;7822;48.146;11.576;2023-04-27T04:29:05;95224.63;;;15.10;70.28
15444;BME280;7822;48.146;11.576;2023-04-27T04:31:36;95222.84;;;15.11;70.37
15444;BME280;7822;48.146;11.576;2023-04-27T04:34:05;95228.06;;;15.11;70.15
15444;BME280;7822;48.146;11.576;2023-04-27T04:36:33;95226.25;;;15.11;70.16
15444;BME280;7822;48.146;11.576;2023-04-27T04:39:01;95236.72;;;15.11;70.20
15444;BME280;7822;48.146;11.576;2023-04-27T04:41:29;95227.09;;;15.12;70.29
15444;BME280;7822;48.146;11.576;2023-04-27T04:43:57;95232.19;;;15.13;70.07
15444;BME280;7822;48.146;11.576;2023-04-27T04:46:26;95226.13;;;15.13;70.05
15444;BME280;7822;48.146;11.576;2023-04-27T04:48:54;95226.94;;;15.13;70.11
15444;BME280;7822;48.146;11.576;2023-04-27T04:51:23;95219.91;;;15.14;70.08
15444;BME280;7822;48.146;11.576;2023-04-27T04:53:50;95223.34;;;15.14;70.04
15444;BME280;7822;48.146;11.576;2023-04-27T04:56:18;95228.56;;;15.14;70.14
15444;BME280;7822;48.146;11.576;2023-04-27T04:58:46;95225.97;;;15.14;70.08
15444;BME280;7822;48.146;11.576;2023-04-27T05:01:14;95231.03;;;15.16;70.15
15444;BME280;7822;48.146;11.576;2023-04-27T05:03:41;95237.25;;;15.15;70.06
15444;BME280;7822;48.146;11.576;2023-04-27T05:06:09;95239.03;;;15.14;69.93
15444;BME280;7822;48.146;11.576;2023-04-27T05:08:38;95246.88;;;15.14;70.11
15444;BME280;7822;48.146;11.576;2023-04-27T05:11:06;95242.47;;;15.15;70.11
15444;BME280;7822;48.146;11.576;2023-04-27T05:13:34;95232.97;;;15.14;69.95
15444;BME280;7822;48.146;11.576;2023-04-27T05:16:03;95237.41;;;15.13;69.98
15444;BME280;7822;48.146;11.576;2023-04-27T05:18:31;95248.66;;;15.14;70.11
15444;BME280;7822;48.146;11.576;2023-04-27T05:20:59;95247.69;;;15.15;70.29
15444;BME280;7822;48.146;11.576;2023-04-27T05:23:27;95246.88;;;15.14;70.30
15444;BME280;7822;48.146;11.576;2023-04-27T05:25:56;95243.44;;;15.14;70.36
15444;BME280;7822;48.146;11.576;2023-04-27T05:28:24;95242.63;;;15.13;69.92
15444;BME280;7822;48.146;11.576;2023-04-27T05:30:51;95236.41;;;15.14;70.16
15444;BME280;7822;48.146;11.576;2023-04-27T05:33:19;95232.97;;;15.14;70.28
15444;BME280;7822;48.146;11.576;2023-04-27T05:35:47;95232.19;;;15.13;70.11
15444;BME280;7822;48.146;11.576;2023-04-27T05:38:15;95240.81;;;15.14;70.35
15444;BME280;7822;48.146;11.576;2023-04-27T05:40:42;95251.28;;;15.14;70.34
15444;BME280;7822;48.146;11.576;2023-04-27T05:43:11;95250.47;;;15.13;70.38
15444;BME280;7822;48.146;11.576;2023-04-27T05:45:39;95265.16;;;15.14;70.37
15444;BME280;7822;48.146;11.576;2023-04-27T05:48:07;95274.94;;;15.12;70.24
15444;BME280;7822;48.146;11.576;2023-04-27T05:50:34;95278.38;;;15.13;70.33
15444;BME280;7822;48.146;11.576;2023-04-27T05:53:02;95275.78;;;15.13;70.28
15444;BME280;7822;48.146;11.576;2023-04-27T05:55:30;95258.44;;;15.12;70.35
15444;BME280;7822;48.146;11.576;2023-04-27T05:58:00;95257.59;;;15.11;70.24
15444;BME280;7822;48.146;11.576;2023-04-27T06:00:35;95262.72;;;15.13;70.47
15444;BME280;7822;48.146;11.576;2023-04-27T06:03:03;95262.03;;;15.11;70.20
15444;BME280;7822;48.146;11.576;2023-04-27T06:05:31;95260.22;;;15.11;70.39
15444;BME280;7822;48.146;11.576;2023-04-27T06:08:00;95261.88;;;15.12;70.05
15444;BME280;7822;48.146;11.576;2023-04-27T06:10:28;95259.28;;;15.12;70.33
15444;BME280;7822;48.146;11.576;2023-04-27T06:12:55;95260.09;;;15.13;70.20
15444;BME280;7822;48.146;11.576;2023-04-27T06:15:23;95260.09;;;15.13;70.01
15444;BME280;7822;48.146;11.576;2023-04-27T06:17:52;95254.03;;;15.12;70.24
15444;BME280;7822;48.146;11.576;2023-04-27T06:20:20;95264.50;;;15.12;70.29
15444;BME280;7822;48.146;11.576;2023-04-27T06:22:48;95266.94;;;15.14;70.25
15444;BME280;7822;48.146;11.576;2023-04-27T06:25:15;95263.53;;;15.13;70.12
15444;BME280;7822;48.146;11.576;2023-04-27T06:27:43;95273.16;;;15.13;70.21
15444;BME280;7822;48.146;11.576;2023-04-27T06:30:11;95274.78;;;15.14;70.17
15444;BME280;7822;48.146;11.576;2023-04-27T06:32:39;95274.00;;;15.13;70.31
15444;BME280;7822;48.146;11.576;2023-04-27T06:35:09;95273.00;;;15.14;70.09
15444;BME280;7822;48.146;11.576;2023-04-27T06:37:37;95270.53;;;15.13;70.17
15444;BME280;7822;48.146;11.576;2023-04-27T06:40:05;95268.75;;;15.13;70.07
15444;BME280;7822;48.146;11.576;2023-04-27T06:42:33;95269.56;;;15.14;70.06
15444;BME280;7822;48.146;11.576;2023-04-27T06:45:02;95275.78;;;15.13;70.16
15444;BME280;7822;48.146;11.576;2023-04-27T06:47:30;95275.63;;;15.14;70.20
15444;BME280;7822;48.146;11.576;2023-04-27T06:49:57;95280.00;;;15.14;70.08
15444;BME280;7822;48.146;11.576;2023-04-27T06:52:27;95275.78;;;15.13;70.18
15444;BME280;7822;48.146;11.576;2023-04-27T06:54:54;95286.22;;;15.13;70.16
15444;BME280;7822;48.146;11.576;2023-04-27T06:57:22;95278.38;;;15.13;70.22
15444;BME280;7822;48.146;11.576;2023-04-27T06:59:50;95272.34;;;15.12;70.09
15444;BME280;7822;48.146;11.576;2023-04-27T07:02:18;95274.13;;;15.12;70.27
15444;BME280;7822;48.146;11.576;2023-04-27T07:04:45;95271.50;;;15.12;70.20
15444;BME280;7822;48.146;11.576;2023-04-27T07:07:13;95271.50;;;15.12;70.38
15444;BME280;7822;48.146;11.576;2023-04-27T07:09:42;95279.22;;;15.13;70.03
15444;BME280;7822;48.146;11.576;2023-04-27T07:12:10;95285.41;;;15.12;70.13
15444;BME280;7822;48.146;11.576;2023-04-27T07:14:37;95284.56;;;15.12;70.32
15444;BME280;7822;48.146;11.576;2023-04-27T07:17:05;95289.78;;;15.12;70.14
15444;BME280;7822;48.146;11.576;2023-04-27T07:19:33;95292.41;;;15.12;70.22
15444;BME280;7822;48.146;11.576;2023-04-27T07:22:01;95290.78;;;15.11;70.33
15444;BME280;7822;48.146;11.576;2023-04-27T07:24:29;95290.78;;;15.11;70.25
15444;BME280;7822;48.146;11.576;2023-04-27T07:26:58;95293.22;;;15.12;70.04
15444;BME280;7822;48.146;11.576;2023-04-27T07:29:28;95292.56;;;15.10;70.07
15444;BME280;7822;48.146;11.576;2023-04-27T07:31:56;95282.94;;;15.11;70.08
15444;BME280;7822;48.146;11.576;2023-04-27T07:34:24;95292.41;;;15.12;70.30
15444;BME280;7822;48.146;11.576;2023-04-27T07:36:56;95287.19;;;15.12;70.29
15444;BME280;7822;48.146;11.576;2023-04-27T07:39:23;95288.97;;;15.11;70.07
15444;BME280;7822;48.146;11.576;2023-04-27T07:41:52;95283.75;;;15.11;70.13
15444;BME280;7822;48.146;11.576;2023-04-27T07:44:21;95281.94;;;15.12;70.29
15444;BME280;7822;48.146;11.576;2023-04-27T07:46:49;95271.50;;;15.12;70.21
15444;BME280;7822;48.146;11.576;2023-04-27T07:49:19;95284.56;;;15.12;70.26
15444;BME280;7822;48.146;11.576;2023-04-27T07:51:47;95275.91;;;15.11;70.42
15444;BME280;7822;48.146;11.576;2023-04-27T07:54:14;95278.38;;;15.13;70.16
15444;BME280;7822;48.146;11.576;2023-04-27T07:56:42;95283.59;;;15.13;70.09
15444;BME280;7822;48.146;11.576;2023-04-27T07:59:10;95286.22;;;15.13;70.15
15444;BME280;7822;48.146;11.576;2023-04-27T08:01:39;95291.44;;;15.13;70.25
15444;BME280;7822;48.146;11.576;2023-04-27T08:04:07;95291.44;;;15.13;70.34
15444;BME280;7822;48.146;11.576;2023-04-27T08:06:35;95288.84;;;15.13;70.08
15444;BME280;7822;48.146;11.576;2023-04-27T08:09:04;95298.47;;;15.12;70.29
15444;BME280;7822;48.146;11.576;2023-04-27T08:11:32;95301.91;;;15.13;70.32
15444;BME280;7822;48.146;11.576;2023-04-27T08:13:59;95292.28;;;15.13;70.12
15444;BME280;7822;48.146;11.576;2023-04-27T08:16:27;95306.28;;;15.12;70.14
15444;BME280;7822;48.146;11.576;2023-04-27T08:18:56;95300.91;;;15.14;70.18
15444;BME280;7822;48.146;11.576;2023-04-27T08:21:26;95302.72;;;15.13;70.29
15444;BME280;7822;48.146;11.576;2023-04-27T08:23:55;95305.34;;;15.13;70.07
15444;BME280;7822;48.146;11.576;2023-04-27T08:26:23;95298.47;;;15.12;70.20
15444;BME280;7822;48.146;11.576;2023-04-27T08:28:51;95295.03;;;15.12;70.35
15444;BME280;7822;48.146;11.576;2023-04-27T08:31:19;95301.91;;;15.13;70.34
15444;BME280;7822;48.146;11.576;2023-04-27T08:33:47;95297.63;;;15.12;70.35
15444;BME280;7822;48.146;11.576;2023-04-27T08:36:17;95303.69;;;15.12;70.04
15444;BME280;7822;48.146;11.576;2023-04-27T08:38:45;95299.28;;;15.13;70.29
15444;BME280;7822;48.146;11.576;2023-04-27T08:41:17;95304.50;;;15.13;70.23
15444;BME280;7822;48.146;11.576;2023-04-27T08:43:48;95302.84;;;15.12;70.59
15444;BME280;7822;48.146;11.576;2023-04-27T08:46:19;95292.41;;;15.12;70.42
15444;BME280;7822;48.146;11.576;2023-04-27T08:48:49;95297.63;;;15.12;70.44
15444;BME280;7822;48.146;11.576;2023-04-27T08:51:19;95289.13;;;15.10;70.17
15444;BME280;7822;48.146;11.576;2023-04-27T08:53:49;95292.41;;;15.12;70.19
15444;BME280;7822;48.146;11.576;2023-04-27T08:56:17;95287.19;;;15.12;70.46
15444;BME280;7822;48.146;11.576;2023-04-27T08:58:45;95293.38;;;15.11;70.33
15444;BME280;7822;48.146;11.576;2023-04-27T09:01:12;95285.56;;;15.11;70.07
15444;BME280;7822;48.146;11.576;2023-04-27T09:03:41;95286.34;;;15.11;70.19
15444;BME280;7822;48.146;11.576;2023-04-27T09:06:12;95288.16;;;15.11;70.24
15444;BME280;7822;48.146;11.576;2023-04-27T09:08:43;95283.75;;;15.11;70.22
15444;BME280;7822;48.146;11.576;2023-04-27T09:11:11;95287.19;;;15.12;70.41
15444;BME280;7822;48.146;11.576;2023-04-27T09:13:40;95295.03;;;15.12;70.46
15444;BME280;7822;48.146;11.576;2023-04-27T09:16:11;95289.78;;;15.12;70.43
15444;BME280;7822;48.146;11.576;2023-04-27T09:18:41;95288.97;;;15.11;70.39
15444;BME280;7822;48.146;11.576;2023-04-27T09:21:09;95285.56;;;15.11;70.28
15444;BME280;7822;48.146;11.576;2023-04-27T09:23:38;95272.50;;;15.11;70.20
15444;BME280;7822;48.146;11.576;2023-04-27T09:26:07;95278.50;;;15.11;70.26
15444;BME280;7822;48.146;11.576;2023-04-27T09:28:38;95278.50;;;15.11;70.34
15444;BME280;7822;48.146;11.576;2023-04-27T09:31:06;95269.72;;;15.12;70.05
15444;BME280;7822;48.146;11.576;2023-04-27T09:33:36;95271.50;;;15.12;70.17
15444;BME280;7822;48.146;11.576;2023-04-27T09:36:05;95268.88;;;15.12;70.20
15444;BME280;7822;48.146;11.576;2023-04-27T09:38:32;95278.50;;;15.11;70.17
15444;BME280;7822;48.146;11.576;2023-04-27T09:41:00;95267.09;;;15.12;70.00
15444;BME280;7822;48.146;11.576;2023-04-27T09:43:30;95263.66;;;15.12;70.11
15444;BME280;7822;48.146;11.576;2023-04-27T09:45:58;95264.50;;;15.12;70.04
15444;BME280;7822;48.146;11.576;2023-04-27T09:48:26;95266.28;;;15.12;69.97
15444;BME280;7822;48.146;11.576;2023-04-27T09:50:55;95263.66;;;15.12;70.17
15444;BME280;7822;48.146;11.576;2023-04-27T09:53:27;95262.84;;;15.11;70.27
15444;BME280;7822;48.146;11.576;2023-04-27T09:56:13;95268.06;;;15.11;70.25
15444;BME280;7822;48.146;11.576;2023-04-27T09:58:57;95264.66;;;15.11;69.91
15444;BME280;7822;48.146;11.576;2023-04-27T10:01:33;95264.50;;;15.12;70.25
15444;BME280;7822;48.146;11.576;2023-04-27T10:04:15;95255.81;;;15.12;70.17
15444;BME280;7822;48.146;11.576;2023-04-27T10:06:58;95260.22;;;15.11;70.11
15444;BME280;7822;48.146;11.576;2023-04-27T10:09:32;95254.19;;;15.11;70.21
15444;BME280;7822;48.146;11.576;2023-04-27T10:12:13;95247.16;;;15.11;69.98
15444;BME280;7822;48.146;11.576;2023-04-27T10:14:52;95241.13;;;15.11;70.27
15444;BME280;7822;48.146;11.576;2023-04-27T10:17:24;95237.69;;;15.10;70.34
15444;BME280;7822;48.146;11.576;2023-04-27T10:19:57;95242.91;;;15.10;70.19
15444;BME280;7822;48.146;11.576;2023-04-27T10:22:36;95245.53;;;15.10;69.99
15444;BME280;7822;48.146;11.576;2023-04-27T10:25:18;95242.91;;;15.10;70.24
15444;BME280;7822;48.146;11.576;2023-04-27T10:27:48;95235.09;;;15.10;70.33
15444;BME280;7822;48.146;11.576;2023-04-27T10:30:20;95238.53;;;15.11;70.15
15444;BME280;7822;48.146;11.576;2023-04-27T10:32:52;95237.69;;;15.10;70.28
15444;BME280;7822;48.146;11.576;2023-04-27T10:35:21;95229.03;;;15.10;70.29
15444;BME280;7822;48.146;11.576;2023-04-27T10:37:48;95227.25;;;15.10;70.13
15444;BME280;7822;48.146;11.576;2023-04-27T10:40:17;95236.03;;;15.09;70.38
15444;BME280;7822;48.146;11.576;2023-04-27T10:42:46;95234.25;;;15.10;70.23
15444;BME280;7822;48.146;11.576;2023-04-27T10:45:26;95229.03;;;15.10;70.13
15444;BME280;7822;48.146;11.576;2023-04-27T10:47:59;95229.84;;;15.10;70.04
15444;BME280;7822;48.146;11.576;2023-04-27T10:50:27;95228.88;;;15.11;69.99
15444;BME280;7822;48.146;11.576;2023-04-27T10:52:59;95228.06;;;15.11;69.97
15444;BME280;7822;48.146;11.576;2023-04-27T10:55:27;95224.47;;;15.12;69.95
15444;BME280;7822;48.146;11.576;2023-04-27T10:57:55;95233.13;;;15.12;69.86
15444;BME280;7822;48.146;11.576;2023-04-27T11:00:24;95231.34;;;15.13;70.25
15444;BME280;7822;48.146;11.576;2023-04-27T11:02:54;95228.75;;;15.13;70.10
15444;BME280;7822;48.146;11.576;2023-04-27T11:05:24;95227.75;;;15.14;69.81
15444;BME280;7822;48.146;11.576;2023-04-27T11:08:04;95228.56;;;15.14;70.11
15444;BME280;7822;48.146;11.576;2023-04-27T11:10:32;95227.63;;;15.15;69.89
15444;BME280;7822;48.146;11.576;2023-04-27T11:13:07;95223.34;;;15.14;70.06
15444;BME280;7822;48.146;11.576;2023-04-27T11:15:44;95232.03;;;15.15;70.04
15444;BME280;7822;48.146;11.576;2023-04-27T11:18:14;95234.63;;;15.15;69.80
15444;BME280;7822;48.146;11.576;2023-04-27T11:20:43;95235.47;;;15.15;70.01
15444;BME280;7822;48.146;11.576;2023-04-27T11:23:21;95237.25;;;15.15;69.84
15444;BME280;7822;48.146;11.576;2023-04-27T11:25:49;95238.06;;;15.15;69.73
15444;BME280;7822;48.146;11.576;2023-04-27T11:28:18;95233.81;;;15.14;69.83
15444;BME280;7822;48.146;11.576;2023-04-27T11:30:45;95231.03;;;15.16;69.88
15444;BME280;7822;48.146;11.576;2023-04-27T11:33:16;95226.78;;;15.15;69.78
15444;BME280;7822;48.146;11.576;2023-04-27T11:35:43;95241.47;;;15.16;69.82
15444;BME280;7822;48.146;11.576;2023-04-27T11:38:15;95241.66;;;15.14;70.16
15444;BME280;7822;48.146;11.576;2023-04-27T11:40:43;95242.31;;;15.16;70.21
15444;BME280;7822;48.146;11.576;2023-04-27T11:43:12;95242.47;;;15.15;70.08
15444;BME280;7822;48.146;11.576;2023-04-27T11:45:43;95238.06;;;15.15;69.97
15444;BME280;7822;48.146;11.576;2023-04-27T11:48:15;95243.31;;;15.15;70.02
15444;BME280;7822;48.146;11.576;2023-04-27T11:50:45;95239.84;;;15.15;70.28
15444;BME280;7822;48.146;11.576;2023-04-27T11:53:13;95242.47;;;15.15;69.96
15444;BME280;7822;48.146;11.576;2023-04-27T11:55:50;95245.91;;;15.15;70.15
15444;BME280;7822;48.146;11.576;2023-04-27T11:58:19;95243.31;;;15.15;70.15
15444;BME280;7822;48.146;11.576;2023-04-27T12:00:47;95246.72;;;15.16;70.20
15444;BME280;7822;48.146;11.576;2023-04-27T12:03:16;95248.53;;;15.15;70.06
15444;BME280;7822;48.146;11.576;2023-04-27T12:05:47;95247.69;;;15.15;70.21
15444;BME280;7822;48.146;11.576;2023-04-27T12:08:16;95241.66;;;15.14;70.03
15444;BME280;7822;48.146;11.576;2023-04-27T12:10:44;95239.84;;;15.15;70.26
15444;BME280;7822;48.146;11.576;2023-04-27T12:13:12;95249.47;;;15.14;70.09
15444;BME280;7822;48.146;11.576;2023-04-27T12:15:40;95245.09;;;15.15;70.09
15444;BME280;7822;48.146;11.576;2023-04-27T12:18:09;95246.88;;;15.14;69.80
15444;BME280;7822;48.146;11.576;2023-04-27T12:20:38;95249.47;;;15.14;70.10
15444;BME280;7822;48.146;11.576;2023-04-27T12:23:06;95246.88;;;15.14;70.09
15444;BME280;7822;48.146;11.576;2023-04-27T12:25:34;95252.09;;;15.14;70.22
15444;BME280;7822;48.146;11.576;2023-04-27T12:28:01;95250.47;;;15.13;70.15
15444;BME280;7822;48.146;11.576;2023-04-27T12:30:29;95249.47;;;15.14;70.31
15444;BME280;7822;48.146;11.576;2023-04-27T12:32:57;95246.03;;;15.14;70.09
15444;BME280;7822;48.146;11.576;2023-04-27T12:35:26;95241.66;;;15.14;70.41
15444;BME280;7822;48.146;11.576;2023-04-27T12:37:58;95237.25;;;15.15;70.13
15444;BME280;7822;48.146;11.576;2023-04-27T12:40:27;95237.25;;;15.15;70.24
15444;BME280;7822;48.146;11.576;2023-04-27T12:42:56;95237.25;;;15.15;70.33
15444;BME280;7822;48.146;11.576;2023-04-27T12:45:27;95244.09;;;15.16;70.14
15444;BME280;7822;48.146;11.576;2023-04-27T12:47:56;95243.31;;;15.15;70.07
15444;BME280;7822;48.146;11.576;2023-04-27T12:50:30;95233.81;;;15.14;69.82
15444;BME280;7822;48.146;11.576;2023-04-27T12:53:01;95238.88;;;15.16;69.95
15444;BME280;7822;48.146;11.576;2023-04-27T12:55:28;95232.84;;;15.15;70.07
15444;BME280;7822;48.146;11.576;2023-04-27T12:58:00;95235.31;;;15.17;70.17
15444;BME280;7822;48.146;11.576;2023-04-27T13:00:28;95231.84;;;15.16;70.21
15444;BME280;7822;48.146;11.576;2023-04-27T13:02:55;95238.88;;;15.16;69.99
15444;BME280;7822;48.146;11.576;2023-04-27T13:05:24;95238.06;;;15.15;70.15
15444;BME280;7822;48.146;11.576;2023-04-27T13:07:52;95227.47;;;15.17;69.90